WetterOnline ( https://www.wetteronline.de )

Wetter aktuell Luckenwalde

Aktuelles Wetter: Potsdam (100m)

6-stündlich | Neueste Meldungen
Ortszeit Temperatur Wetter
So, 27.11. 1:00 6.1° C bedeckt
Sa, 26.11. 19:00 6.8° C bedeckt
Sa, 26.11. 13:00 7.5° C bedeckt
Sa, 26.11. 7:00 7.3° C Nebel
Sa, 26.11. 1:00 6.8° C bedeckt
Fr, 25.11. 19:00 5.9° C leichter Regen
Fr, 25.11. 13:00 6.4° C wolkig
Fr, 25.11. 7:00 2.8° C leicht bewölkt
Ortszeit Temperatur Wetter
So, 27.11. 2:00 5.6° C bewölkt
So, 27.11. 1:50 5.6° C Dunst
So, 27.11. 1:40 5.8° C Dunst
So, 27.11. 1:30 6.0° C bedeckt
So, 27.11. 1:20 6.0° C Dunst
So, 27.11. 1:10 6.0° C Dunst
So, 27.11. 1:00 6.1° C bedeckt
So, 27.11. 0:30 6.1° C bedeckt
So, 27.11. 0:00 6.3° C Nebel
Sa, 26.11. 23:30 6.4° C Nebel
Sa, 26.11. 23:00 6.6° C bedeckt
Ortszeit Relative Feuchte Sichtweite
So, 27.11. 1:00 99% 3.9 km
Sa, 26.11. 19:00 97% 8 km
Sa, 26.11. 13:00 95% 18 km
Sa, 26.11. 7:00 98% 3.1 km
Sa, 26.11. 1:00 99% 2.4 km
Fr, 25.11. 19:00 98% 3.7 km
Fr, 25.11. 13:00 94% 24 km
Fr, 25.11. 7:00 98% 1.3 km
Ortszeit Relative Feuchte Sichtweite
So, 27.11. 2:00 97% 3.9 km
So, 27.11. 1:50 97% -
So, 27.11. 1:40 98% -
So, 27.11. 1:30 99% 3.6 km
So, 27.11. 1:20 99% -
So, 27.11. 1:10 98% -
So, 27.11. 1:00 99% 3.9 km
So, 27.11. 0:30 99% 6 km
So, 27.11. 0:00 99% 4.1 km
Sa, 26.11. 23:30 98% 5.0 km
Sa, 26.11. 23:00 98% 1.3 km
Ortszeit Niederschlagsmenge Niederschlagsart
So, 27.11. 1:00 0.1 l/m2 in 6 Std. Regen
Sa, 26.11. 19:00 0.5 l/m2 in 12 Std. -
Sa, 26.11. 13:00 0.5 l/m2 in 6 Std. Regen
Sa, 26.11. 7:00 3 l/m2 in 12 Std. Regen
Sa, 26.11. 1:00 3 l/m2 in 6 Std. Regen
Fr, 25.11. 19:00 0.5 l/m2 in 12 Std. Regen
Fr, 25.11. 13:00 0.0 l/m2 in 6 Std. -
Fr, 25.11. 7:00 0.1 l/m2 in 12 Std. Sprühregen
Ortszeit Niederschlagsmenge Niederschlagsart
So, 27.11. 2:00 0.0 l/m2 in 1 Std. -
So, 27.11. 1:50 keine Meldung -
So, 27.11. 1:40 keine Meldung -
So, 27.11. 1:30 0.0 l/m2 in 1 Std. -
So, 27.11. 1:20 keine Meldung -
So, 27.11. 1:10 keine Meldung -
So, 27.11. 1:00 0.0 l/m2 in 1 Std. Regen
So, 27.11. 0:30 0.0 l/m2 in 1 Std. -
So, 27.11. 0:00 0.0 l/m2 in 1 Std. -
Sa, 26.11. 23:30 0.0 l/m2 in 1 Std. -
Sa, 26.11. 23:00 <0.05 l/m2 in 1 Std. Regen
Ortszeit Stärke Spitze Richtung
km/h Bft. km/h Grad Sektor
So, 27.11. 1:00 13 3 19 200° S
Sa, 26.11. 19:00 11 2 32 230° SW
Sa, 26.11. 13:00 11 2 31 260° W
Sa, 26.11. 7:00 19 3 28 280° W
Sa, 26.11. 1:00 13 3 22 270° W
Fr, 25.11. 19:00 11 2 22 210° SW
Fr, 25.11. 13:00 11 2 29 140° SO
Fr, 25.11. 7:00 14 3 22 150° SO
Ortszeit Stärke Spitze Richtung
km/h Bft. km/h Grad Sektor
So, 27.11. 2:00 13 3 19 220° SW
So, 27.11. 1:50 13 3 - 220° SW
So, 27.11. 1:40 13 3 - 220° SW
So, 27.11. 1:30 11 2 18 220° SW
So, 27.11. 1:20 11 2 - 220° SW
So, 27.11. 1:10 13 3 - 210° SW
So, 27.11. 1:00 13 3 19 200° S
So, 27.11. 0:30 13 3 17 200° S
So, 27.11. 0:00 11 2 15 200° S
Sa, 26.11. 23:30 11 2 14 200° S
Sa, 26.11. 23:00 9 2 13 190° S
Ortszeit Untergrenze Bedeckung Gattung
total tief tief mittel hoch
So, 27.11. 1:00 570 m 8/8 8/8 - - -
Sa, 26.11. 19:00 270 m 8/8 8/8 - - -
Sa, 26.11. 13:00 210 m 8/8 8/8 - - -
Sa, 26.11. 7:00 150 m 7/8 7/8 - - -
Sa, 26.11. 1:00 60 m 8/8 8/8 - - -
Fr, 25.11. 19:00 540 m 8/8 8/8 - - -
Fr, 25.11. 13:00 1020 m 8/8 1/8 - - -
Fr, 25.11. 7:00 1500 m 2/8 2/8 - - -
Ortszeit Bedeckungsgrad in Achtel und Wolkenuntergrenze
So, 27.11. 2:00 5(630m) 7(1500m) 8(4800m)
So, 27.11. 1:50 5(630m) 7(1500m) 8(4800m)
So, 27.11. 1:40 8
So, 27.11. 1:30 7(570m) 8(1500m)
So, 27.11. 1:20 7(570m) 8(1500m)
So, 27.11. 1:10 8
So, 27.11. 1:00 7(570m) 8(1500m)
So, 27.11. 0:30 1(540m) 8(1500m)
So, 27.11. 0:00 5(540m) 7(690m) 8(1500m)
Sa, 26.11. 23:30 7(630m) 8(1500m)
Sa, 26.11. 23:00 5(150m) 8(570m)
Ortszeit Luftdruck NN (hPa) Tendenz (hPa in 3 Std.)
So, 27.11. 1:00 1030 - 0,2
Sa, 26.11. 19:00 1030 + 0,6
Sa, 26.11. 13:00 1029 + 1,3
Sa, 26.11. 7:00 1026 + 2,0
Sa, 26.11. 1:00 1022 + 1,7
Fr, 25.11. 19:00 1019 + 1,1
Fr, 25.11. 13:00 1017 - 0,3
Fr, 25.11. 7:00 1016 + 0,1
Ortszeit Luftdruck NN (hPa) Tendenz (hPa in 3 Std.)
So, 27.11. 2:00 1030 - 0,3
So, 27.11. 1:50 1030 keine Meldung
So, 27.11. 1:40 1030 keine Meldung
So, 27.11. 1:30 1030 - 0,2
So, 27.11. 1:20 1030 keine Meldung
So, 27.11. 1:10 1030 keine Meldung
So, 27.11. 1:00 1030 - 0,2
So, 27.11. 0:30 1030 0,0
So, 27.11. 0:00 1030 + 0,1
Sa, 26.11. 23:30 1030 + 0,1
Sa, 26.11. 23:00 1030 0,0
Ortszeit Schneehöhe (cm)
So, 27.11. 1:00 0
Sa, 26.11. 19:00 0
Sa, 26.11. 13:00 0
Sa, 26.11. 7:00 0
Sa, 26.11. 1:00 0
Fr, 25.11. 19:00 0
Fr, 25.11. 13:00 0
Fr, 25.11. 7:00 0
Ortszeit Schneehöhe (cm)
So, 27.11. 2:00 0
So, 27.11. 1:50 0
So, 27.11. 1:40 0
So, 27.11. 1:30 0
So, 27.11. 1:20 0
So, 27.11. 1:10 0
So, 27.11. 1:00 0
So, 27.11. 0:30 0
So, 27.11. 0:00 0
Sa, 26.11. 23:30 0
Sa, 26.11. 23:00 0
Link zu dieser Seite / Seite empfehlen

Das Wetter in ...